createdAt,value
2018-12-18T00:00:45.634Z,99564.64
2018-12-18T00:02:56.584Z,99565.05
2018-12-18T00:05:13.716Z,99566.78
2018-12-18T00:07:24.568Z,99564.59
2018-12-18T00:09:35.400Z,99566.73
2018-12-18T00:11:46.255Z,99565.01
2018-12-18T00:13:57.109Z,99575.70
2018-12-18T00:16:07.962Z,99571.80
2018-12-18T00:18:18.825Z,99564.48
2018-12-18T00:20:29.681Z,99573.85
2018-12-18T00:22:40.505Z,99569.55
2018-12-18T00:24:51.359Z,99567.45
2018-12-18T00:27:02.205Z,99571.23
2018-12-18T00:29:13.041Z,99563.11
2018-12-18T00:31:23.891Z,99561.78
2018-12-18T00:33:34.729Z,99567.77
2018-12-18T00:35:45.610Z,99570.34
2018-12-18T00:37:56.457Z,99567.29
2018-12-18T00:40:07.491Z,99565.95
2018-12-18T00:42:18.321Z,99565.47
2018-12-18T00:44:29.180Z,99565.87
2018-12-18T00:46:40.021Z,99561.57
2018-12-18T00:48:50.860Z,99565.39
2018-12-18T00:51:01.688Z,99561.53
2018-12-18T00:53:12.564Z,99559.79
2018-12-18T00:55:23.414Z,99566.19
2018-12-18T00:57:34.264Z,99560.23
2018-12-18T00:59:45.098Z,99557.22
2018-12-18T01:01:59.133Z,99559.00
2018-12-18T01:04:09.986Z,99558.59
2018-12-18T01:06:20.856Z,99554.72
2018-12-18T01:08:31.685Z,99551.27
2018-12-18T01:10:42.533Z,99552.69
2018-12-18T01:12:53.396Z,99548.91
2018-12-18T01:15:05.265Z,99554.14
2018-12-18T01:17:16.088Z,99554.22
2018-12-18T01:19:27.075Z,99559.05
2018-12-18T01:21:37.910Z,99562.92
2018-12-18T01:23:48.769Z,99559.09
2018-12-18T01:25:59.750Z,99558.66
2018-12-18T01:28:10.589Z,99547.62
2018-12-18T01:30:21.429Z,99546.79
2018-12-18T01:32:32.264Z,99548.55
2018-12-18T01:34:43.151Z,99547.23
2018-12-18T01:36:54.012Z,99554.94
2018-12-18T01:39:05.588Z,99553.70
2018-12-18T01:41:16.424Z,99551.28
2018-12-18T01:43:27.277Z,99553.89
2018-12-18T01:45:38.157Z,99559.52
2018-12-18T01:47:48.997Z,99557.83
2018-12-18T01:49:59.901Z,99563.38
2018-12-18T01:52:10.737Z,99553.89
2018-12-18T01:54:21.597Z,99557.71
2018-12-18T01:56:32.655Z,99556.47
2018-12-18T01:58:43.505Z,99556.87
2018-12-18T02:00:54.361Z,99554.70
2018-12-18T02:03:05.298Z,99551.24
2018-12-18T02:05:16.160Z,99547.15
2018-12-18T02:07:26.990Z,99548.91
2018-12-18T02:09:37.841Z,99547.27
2018-12-18T02:11:48.701Z,99551.13
2018-12-18T02:13:59.553Z,99544.58
2018-12-18T02:16:10.420Z,99547.11
2018-12-18T02:18:21.239Z,99548.88
2018-12-18T02:20:32.096Z,99543.77
2018-12-18T02:22:42.911Z,99536.86
2018-12-18T02:24:53.775Z,99540.72
2018-12-18T02:27:04.612Z,99527.48
2018-12-18T02:29:15.449Z,99527.92
2018-12-18T02:31:26.339Z,99527.89
2018-12-18T02:33:37.162Z,99532.59
2018-12-18T02:35:47.983Z,99533.88
2018-12-18T02:37:58.840Z,99525.39
2018-12-18T02:40:09.661Z,99525.47
2018-12-18T02:42:20.527Z,99518.64
2018-12-18T02:44:31.365Z,99526.31
2018-12-18T02:46:43.132Z,99528.41
2018-12-18T02:48:53.983Z,99523.26
2018-12-18T02:51:04.854Z,99521.94
2018-12-18T02:53:15.738Z,99519.81
2018-12-18T02:55:26.621Z,99518.97
2018-12-18T02:57:37.549Z,99515.95
2018-12-18T02:59:48.428Z,99513.33
2018-12-18T03:01:59.260Z,99512.89
2018-12-18T03:04:10.076Z,99512.53
2018-12-18T03:06:20.931Z,99509.52
2018-12-18T03:08:31.781Z,99509.95
2018-12-18T03:10:42.608Z,99508.23
2018-12-18T03:12:53.466Z,99509.91
2018-12-18T03:15:04.413Z,99506.45
2018-12-18T03:17:15.372Z,99496.13
2018-12-18T03:19:26.226Z,99495.69
2018-12-18T03:21:37.064Z,99496.12
2018-12-18T03:23:47.941Z,99497.41
2018-12-18T03:25:58.773Z,99491.82
2018-12-18T03:28:09.639Z,99488.48
2018-12-18T03:30:20.503Z,99491.42
2018-12-18T03:32:32.556Z,99490.97
2018-12-18T03:34:43.520Z,99487.56
2018-12-18T03:36:54.349Z,99483.82
2018-12-18T03:39:05.407Z,99483.47
2018-12-18T03:41:16.342Z,99485.31
2018-12-18T03:43:27.184Z,99478.56
2018-12-18T03:45:38.029Z,99479.45
2018-12-18T03:47:48.855Z,99478.20
2018-12-18T03:49:59.793Z,99481.22
2018-12-18T03:52:10.613Z,99475.42
2018-12-18T03:54:21.779Z,99461.42
2018-12-18T03:56:32.621Z,99464.98
2018-12-18T03:58:43.474Z,99465.56
2018-12-18T04:00:54.317Z,99468.61
2018-12-18T04:03:05.154Z,99469.22
2018-12-18T04:05:16.140Z,99470.84
2018-12-18T04:07:27.088Z,99469.19
2018-12-18T04:09:37.929Z,99468.27
2018-12-18T04:11:54.923Z,99474.73
2018-12-18T04:14:05.772Z,99473.07
2018-12-18T04:16:16.621Z,99471.34
2018-12-18T04:18:27.475Z,99475.64
2018-12-18T04:20:38.438Z,99472.59
2018-12-18T04:22:49.261Z,99478.98
2018-12-18T04:25:00.115Z,99477.70
2018-12-18T04:27:11.167Z,99476.83
2018-12-18T04:29:22.102Z,99475.13
2018-12-18T04:31:32.945Z,99473.92
2018-12-18T04:33:43.761Z,99477.73
2018-12-18T04:35:54.602Z,99478.18
2018-12-18T04:38:05.424Z,99475.20
2018-12-18T04:40:16.272Z,99480.38
2018-12-18T04:42:27.096Z,99479.59
2018-12-18T04:44:37.944Z,99469.31
2018-12-18T04:46:48.839Z,99465.12
2018-12-18T04:48:59.657Z,99469.47
2018-12-18T04:51:10.529Z,99466.17
2018-12-18T04:53:21.484Z,99481.66
2018-12-18T04:55:32.336Z,99479.20
2018-12-18T04:57:43.277Z,99480.62
2018-12-18T04:59:54.115Z,99477.25
2018-12-18T05:02:04.992Z,99481.98
2018-12-18T05:04:15.949Z,99480.25
2018-12-18T05:06:26.811Z,99481.56
2018-12-18T05:08:37.655Z,99484.56
2018-12-18T05:10:48.497Z,99485.88
2018-12-18T05:12:59.349Z,99494.03
2018-12-18T05:15:10.196Z,99494.52
2018-12-18T05:17:21.188Z,99492.92
2018-12-18T05:19:32.012Z,99499.78
2018-12-18T05:21:42.869Z,99498.53
2018-12-18T05:23:53.720Z,99496.86
2018-12-18T05:26:04.810Z,99498.20
2018-12-18T05:28:16.362Z,99492.20
2018-12-18T05:30:27.373Z,99495.66
2018-12-18T05:32:38.268Z,99492.71
2018-12-18T05:34:49.112Z,99493.16
2018-12-18T05:36:59.984Z,99494.47
2018-12-18T05:39:10.821Z,99488.05
2018-12-18T05:41:21.684Z,99494.88
2018-12-18T05:43:32.570Z,99497.03
2018-12-18T05:45:43.453Z,99495.75
2018-12-18T05:47:54.312Z,99486.80
2018-12-18T05:50:05.674Z,99483.41
2018-12-18T05:52:16.542Z,99484.27
2018-12-18T05:54:27.369Z,99486.39
2018-12-18T05:56:38.206Z,99488.11
2018-12-18T05:58:49.064Z,99488.09
2018-12-18T06:00:59.921Z,99492.80
2018-12-18T06:03:10.775Z,99498.39
2018-12-18T06:05:21.621Z,99501.81
2018-12-18T06:07:32.481Z,99501.83
2018-12-18T06:09:43.336Z,99500.13
2018-12-18T06:11:54.182Z,99495.89
2018-12-18T06:14:05.033Z,99498.45
2018-12-18T06:16:15.847Z,99501.46
2018-12-18T06:18:26.698Z,99496.80
2018-12-18T06:20:37.633Z,99502.74
2018-12-18T06:22:48.517Z,99501.47
2018-12-18T06:24:59.389Z,99502.75
2018-12-18T06:27:10.275Z,99497.21
2018-12-18T06:29:21.257Z,99499.34
2018-12-18T06:31:32.081Z,99504.89
2018-12-18T06:33:42.913Z,99499.79
2018-12-18T06:35:53.746Z,99503.63
2018-12-18T06:38:04.590Z,99503.74
2018-12-18T06:40:15.473Z,99501.40
2018-12-18T06:42:26.354Z,99504.84
2018-12-18T06:44:37.217Z,99500.64
2018-12-18T06:46:48.055Z,99494.74
2018-12-18T06:48:58.905Z,99494.39
2018-12-18T06:51:09.757Z,99500.00
2018-12-18T06:53:20.576Z,99501.75
2018-12-18T06:55:31.468Z,99497.94
2018-12-18T06:57:42.334Z,99493.72
2018-12-18T06:59:53.206Z,99502.25
2018-12-18T07:02:04.060Z,99488.61
2018-12-18T07:04:14.908Z,99493.73
2018-12-18T07:06:25.766Z,99488.64
2018-12-18T07:08:36.621Z,99490.37
2018-12-18T07:10:47.458Z,99490.80
2018-12-18T07:12:58.321Z,99495.06
2018-12-18T07:15:09.172Z,99495.45
2018-12-18T07:17:20.025Z,99494.58
2018-12-18T07:19:30.842Z,99489.45
2018-12-18T07:21:41.720Z,99482.23
2018-12-18T07:23:52.649Z,99483.98
2018-12-18T07:26:03.513Z,99485.25
2018-12-18T07:28:14.361Z,99486.06
2018-12-18T07:30:25.184Z,99489.03
2018-12-18T07:32:36.034Z,99493.74
2018-12-18T07:34:46.849Z,99491.18
2018-12-18T07:36:57.848Z,99494.61
2018-12-18T07:39:08.877Z,99489.50
2018-12-18T07:41:19.856Z,99491.24
2018-12-18T07:43:30.696Z,99489.53
2018-12-18T07:45:41.563Z,99481.86
2018-12-18T07:47:52.438Z,99480.17
2018-12-18T07:50:04.432Z,99478.47
2018-12-18T07:52:15.307Z,99479.32
2018-12-18T07:54:26.160Z,99470.33
2018-12-18T07:56:37.072Z,99476.30
2018-12-18T07:58:47.940Z,99474.99
2018-12-18T08:00:58.807Z,99466.91
2018-12-18T08:03:09.655Z,99469.89
2018-12-18T08:05:20.602Z,99469.03
2018-12-18T08:07:31.491Z,99472.83
2018-12-18T08:09:42.353Z,99470.54
2018-12-18T08:11:53.221Z,99466.39
2018-12-18T08:14:04.097Z,99467.34
2018-12-18T08:16:14.933Z,99472.09
2018-12-18T08:18:25.796Z,99468.75
2018-12-18T08:20:36.648Z,99471.92
2018-12-18T08:22:47.484Z,99471.19
2018-12-18T08:24:58.360Z,99467.83
2018-12-18T08:27:09.201Z,99463.36
2018-12-18T08:29:20.071Z,99465.28
2018-12-18T08:31:30.932Z,99465.32
2018-12-18T08:33:41.775Z,99458.52
2018-12-18T08:35:52.671Z,99454.70
2018-12-18T08:38:03.517Z,99461.39
2018-12-18T08:40:14.385Z,99461.14
2018-12-18T08:42:25.205Z,99465.15
2018-12-18T08:44:36.082Z,99461.67
2018-12-18T08:46:46.937Z,99459.09
2018-12-18T08:48:57.794Z,99459.13
2018-12-18T08:51:08.636Z,99465.55
2018-12-18T08:53:19.488Z,99460.34
2018-12-18T08:55:30.454Z,99457.51
2018-12-18T08:57:41.312Z,99455.00
2018-12-18T08:59:52.149Z,99457.44
2018-12-18T09:02:03.005Z,99451.69
2018-12-18T09:04:13.885Z,99454.09
2018-12-18T09:06:24.745Z,99449.03
2018-12-18T09:08:35.580Z,99446.83
2018-12-18T09:10:46.448Z,99447.72
2018-12-18T09:12:57.316Z,99450.99
2018-12-18T09:15:14.360Z,99453.56
2018-12-18T09:17:31.400Z,99454.59
2018-12-18T09:19:42.296Z,99449.77
2018-12-18T09:21:53.194Z,99453.77
2018-12-18T09:24:04.145Z,99445.05
2018-12-18T09:26:15.013Z,99444.22
2018-12-18T09:28:25.931Z,99438.97
2018-12-18T09:30:42.429Z,99438.92
2018-12-18T09:32:49.709Z,99434.39
2018-12-18T09:35:00.579Z,99424.27
2018-12-18T09:37:11.489Z,99418.72
2018-12-18T09:39:24.371Z,99418.20
2018-12-18T09:41:38.320Z,99420.78
2018-12-18T09:43:54.889Z,99415.90
2018-12-18T09:46:05.776Z,99416.00
2018-12-18T09:48:17.638Z,99406.28
2018-12-18T09:50:28.512Z,99400.20
2018-12-18T09:52:39.372Z,99391.03
2018-12-18T09:54:50.197Z,99389.17
2018-12-18T09:57:01.089Z,99383.73
2018-12-18T09:59:11.978Z,99384.15
2018-12-18T10:01:22.803Z,99376.08
2018-12-18T10:03:33.860Z,99369.95
2018-12-18T10:05:44.761Z,99362.06
2018-12-18T10:07:55.625Z,99358.69
2018-12-18T10:10:06.637Z,99353.10
2018-12-18T10:12:19.508Z,99347.47
2018-12-18T10:14:30.372Z,99340.03
2018-12-18T10:16:41.217Z,99350.59
2018-12-18T10:18:52.064Z,99359.93
2018-12-18T10:21:02.941Z,99362.22
2018-12-18T10:23:13.792Z,99361.63
2018-12-18T10:25:24.698Z,99349.24
2018-12-18T10:27:35.554Z,99337.73
2018-12-18T10:29:46.413Z,99328.93
2018-12-18T10:31:57.249Z,99329.38
2018-12-18T10:34:08.100Z,99316.08
2018-12-18T10:36:18.942Z,99306.30
2018-12-18T10:38:29.761Z,99301.66
2018-12-18T10:40:40.605Z,99299.78
2018-12-18T10:42:51.425Z,99295.88
2018-12-18T10:45:05.968Z,99294.44
2018-12-18T10:47:16.829Z,99289.50
2018-12-18T10:49:27.662Z,99289.36
2018-12-18T10:51:38.512Z,99293.15
2018-12-18T10:53:49.390Z,99292.25
2018-12-18T10:56:00.298Z,99288.74
2018-12-18T10:58:11.192Z,99280.46
2018-12-18T11:00:28.120Z,99274.09
2018-12-18T11:02:38.987Z,99268.75
2018-12-18T11:04:49.943Z,99259.03
2018-12-18T11:07:00.816Z,99244.59
2018-12-18T11:09:11.822Z,99230.75
2018-12-18T11:11:22.674Z,99220.67
2018-12-18T11:13:34.826Z,99211.60
2018-12-18T11:15:45.877Z,99204.21
2018-12-18T11:17:56.859Z,99193.22
2018-12-18T11:20:07.749Z,99189.67
2018-12-18T11:22:18.592Z,99183.98
2018-12-18T11:24:29.432Z,99182.00
2018-12-18T11:26:40.268Z,99182.17
2018-12-18T11:28:51.100Z,99175.11
2018-12-18T11:31:01.995Z,99171.86
2018-12-18T11:33:12.836Z,99172.92
2018-12-18T11:35:23.684Z,99165.41
2018-12-18T11:37:34.555Z,99160.31
2018-12-18T11:39:45.398Z,99148.99
2018-12-18T11:41:56.320Z,99154.88
2018-12-18T11:44:07.206Z,99151.38
2018-12-18T11:46:18.076Z,99143.17
2018-12-18T11:48:28.913Z,99139.38
2018-12-18T11:50:39.777Z,99126.17
2018-12-18T11:52:50.640Z,99122.20
2018-12-18T11:55:01.493Z,99123.50
2018-12-18T11:57:12.365Z,99120.49
2018-12-18T11:59:23.320Z,99121.88
2018-12-18T12:01:34.182Z,99117.82
2018-12-18T12:03:45.273Z,99109.44
2018-12-18T12:05:56.116Z,99110.48
2018-12-18T12:08:07.001Z,99106.80
2018-12-18T12:10:17.828Z,99105.02
2018-12-18T12:12:28.691Z,99107.90
2018-12-18T12:14:40.589Z,99105.61
2018-12-18T12:16:51.463Z,99107.21
2018-12-18T12:19:03.268Z,99107.13
2018-12-18T12:21:14.163Z,99094.98
2018-12-18T12:23:25.026Z,99098.17
2018-12-18T12:25:35.908Z,99092.91
2018-12-18T12:27:52.708Z,99086.78
2018-12-18T12:30:11.134Z,99081.58
2018-12-18T12:32:22.019Z,99075.25
2018-12-18T12:34:32.884Z,99080.19
2018-12-18T12:36:43.721Z,99079.73
2018-12-18T12:38:54.583Z,99073.97
2018-12-18T12:41:05.452Z,99064.49
2018-12-18T12:43:16.309Z,99053.48
2018-12-18T12:45:27.148Z,99054.22
2018-12-18T12:47:38.025Z,99044.67
2018-12-18T12:49:48.894Z,99044.02
2018-12-18T12:51:59.757Z,99037.63
2018-12-18T12:54:10.637Z,99044.32
2018-12-18T12:56:21.471Z,99045.16
2018-12-18T12:58:32.382Z,99036.95
2018-12-18T13:00:43.241Z,99027.45
2018-12-18T13:02:54.084Z,99026.52
2018-12-18T13:05:05.120Z,99020.62
2018-12-18T13:07:16.072Z,99023.61
2018-12-18T13:09:27.044Z,99027.29
2018-12-18T13:11:37.897Z,99023.61
2018-12-18T13:13:48.795Z,99024.58
2018-12-18T13:15:59.653Z,99016.83
2018-12-18T13:18:10.548Z,99014.73
2018-12-18T13:20:21.402Z,99010.02
2018-12-18T13:22:32.248Z,99005.92
2018-12-18T13:24:43.117Z,99002.44
2018-12-18T13:26:53.995Z,99001.75
2018-12-18T13:29:04.854Z,99000.47
2018-12-18T13:31:15.740Z,99002.30
2018-12-18T13:33:26.593Z,99002.89
2018-12-18T13:35:37.480Z,99000.50
2018-12-18T13:37:48.384Z,98998.27
2018-12-18T13:39:59.236Z,99000.85
2018-12-18T13:42:10.121Z,99009.53
2018-12-18T13:44:21.006Z,99001.04
2018-12-18T13:46:31.928Z,99003.17
2018-12-18T13:48:42.875Z,99007.02
2018-12-18T13:50:53.777Z,98997.69
2018-12-18T13:53:04.654Z,98997.17
2018-12-18T13:55:15.488Z,98996.33
2018-12-18T13:57:26.356Z,98990.33
2018-12-18T13:59:37.177Z,98981.03
2018-12-18T14:01:48.069Z,98977.38
2018-12-18T14:03:58.953Z,98978.25
2018-12-18T14:06:09.804Z,98981.03
2018-12-18T14:08:20.705Z,98977.47
2018-12-18T14:10:31.608Z,98972.34
2018-12-18T14:12:44.505Z,98970.11
2018-12-18T14:14:55.348Z,98963.30
2018-12-18T14:17:06.186Z,98958.11
2018-12-18T14:19:17.120Z,98965.66
2018-12-18T14:21:28.091Z,98965.14
2018-12-18T14:23:38.986Z,98969.12
2018-12-18T14:25:49.844Z,98965.34
2018-12-18T14:28:00.732Z,98965.83
2018-12-18T14:30:11.588Z,98959.62
2018-12-18T14:32:22.484Z,98958.66
2018-12-18T14:34:33.382Z,98960.38
2018-12-18T14:36:44.230Z,98959.11
2018-12-18T14:38:55.097Z,98964.78
2018-12-18T14:41:05.940Z,98961.09
2018-12-18T14:43:16.806Z,98957.67
2018-12-18T14:45:27.683Z,98955.57
2018-12-18T14:47:38.545Z,98952.52
2018-12-18T14:49:49.416Z,98946.23
2018-12-18T14:52:00.297Z,98946.60
2018-12-18T14:54:11.622Z,98942.25
2018-12-18T14:56:22.453Z,98942.00
2018-12-18T14:58:33.349Z,98943.23
2018-12-18T15:00:44.209Z,98933.52
2018-12-18T15:02:55.052Z,98939.38
2018-12-18T15:05:05.978Z,98935.00
2018-12-18T15:07:16.836Z,98933.16
2018-12-18T15:09:27.698Z,98927.73
2018-12-18T15:11:38.573Z,98918.34
2018-12-18T15:13:49.452Z,98919.55
2018-12-18T15:16:00.341Z,98916.97
2018-12-18T15:18:11.176Z,98920.53
2018-12-18T15:20:22.058Z,98910.45
2018-12-18T15:22:33.021Z,98907.11
2018-12-18T15:24:43.933Z,98914.05
2018-12-18T15:26:54.901Z,98906.94
2018-12-18T15:29:05.772Z,98905.66
2018-12-18T15:31:16.660Z,98913.09
2018-12-18T15:33:27.488Z,98908.08
2018-12-18T15:35:38.796Z,98913.73
2018-12-18T15:37:49.808Z,98913.68
2018-12-18T15:40:00.642Z,98905.41
2018-12-18T15:42:11.519Z,98911.25
2018-12-18T15:44:22.396Z,98906.59
2018-12-18T15:46:33.394Z,98898.72
2018-12-18T15:48:44.295Z,98894.80
2018-12-18T15:50:55.141Z,98900.02
2018-12-18T15:53:06.028Z,98892.38
2018-12-18T15:55:16.885Z,98886.81
2018-12-18T15:57:28.774Z,98881.89
2018-12-18T15:59:39.693Z,98886.73
2018-12-18T16:01:50.574Z,98882.34
2018-12-18T16:04:01.416Z,98884.52
2018-12-18T16:06:12.285Z,98883.66
2018-12-18T16:08:23.130Z,98875.54
2018-12-18T16:10:33.973Z,98874.33
2018-12-18T16:12:44.865Z,98870.47
2018-12-18T16:14:55.725Z,98874.83
2018-12-18T16:17:06.607Z,98869.33
2018-12-18T16:19:17.886Z,98864.57
2018-12-18T16:21:28.766Z,98857.62
2018-12-18T16:23:39.624Z,98859.95
2018-12-18T16:25:50.506Z,98852.89
2018-12-18T16:28:01.376Z,98856.75
2018-12-18T16:30:12.329Z,98854.89
2018-12-18T16:32:23.181Z,98860.76
2018-12-18T16:34:34.094Z,98862.05
2018-12-18T16:36:45.009Z,98859.15
2018-12-18T16:38:55.860Z,98857.81
2018-12-18T16:41:06.746Z,98848.94
2018-12-18T16:43:17.629Z,98844.03
2018-12-18T16:45:28.500Z,98841.86
2018-12-18T16:47:39.511Z,98836.02
2018-12-18T16:49:50.409Z,98835.25
2018-12-18T16:52:01.425Z,98838.19
2018-12-18T16:54:12.581Z,98833.97
2018-12-18T16:56:23.412Z,98827.33
2018-12-18T16:58:34.295Z,98827.16
2018-12-18T17:00:45.148Z,98821.50
2018-12-18T17:02:56.037Z,98820.73
2018-12-18T17:05:07.011Z,98820.73
2018-12-18T17:07:17.889Z,98812.63
2018-12-18T17:09:28.773Z,98811.03
2018-12-18T17:11:39.666Z,98810.78
2018-12-18T17:13:50.573Z,98798.88
2018-12-18T17:16:01.457Z,98796.39
2018-12-18T17:18:12.326Z,98788.68
2018-12-18T17:20:23.224Z,98791.87
2018-12-18T17:22:34.077Z,98806.86
2018-12-18T17:24:45.886Z,98808.57
2018-12-18T17:26:56.757Z,98811.65
2018-12-18T17:29:07.637Z,98805.57
2018-12-18T17:31:18.520Z,98801.44
2018-12-18T17:33:29.413Z,98795.88
2018-12-18T17:35:41.450Z,98800.16
2018-12-18T17:37:52.292Z,98805.45
2018-12-18T17:40:04.396Z,98799.52
2018-12-18T17:42:15.277Z,98788.40
2018-12-18T17:44:26.181Z,98792.70
2018-12-18T17:46:37.062Z,98794.00
2018-12-18T17:48:47.944Z,98793.11
2018-12-18T17:50:58.796Z,98800.81
2018-12-18T17:53:09.642Z,98812.37
2018-12-18T17:55:20.533Z,98808.12
2018-12-18T17:57:31.481Z,98816.61
2018-12-18T17:59:42.349Z,98813.66
2018-12-18T18:01:53.278Z,98818.45
2018-12-18T18:04:04.179Z,98816.67
2018-12-18T18:06:15.045Z,98826.09
2018-12-18T18:08:25.968Z,98830.34
2018-12-18T18:10:36.876Z,98824.31
2018-12-18T18:12:47.786Z,98823.92
2018-12-18T18:14:58.648Z,98822.32
2018-12-18T18:17:09.552Z,98830.41
2018-12-18T18:19:20.470Z,98829.58
2018-12-18T18:21:31.393Z,98838.17
2018-12-18T18:23:42.254Z,98841.51
2018-12-18T18:25:53.320Z,98838.11
2018-12-18T18:28:04.264Z,98841.92
2018-12-18T18:30:15.141Z,98838.77
2018-12-18T18:32:26.027Z,98842.62
2018-12-18T18:34:36.894Z,98851.18
2018-12-18T18:36:47.929Z,98842.62
2018-12-18T18:38:58.813Z,98842.23
2018-12-18T18:41:09.700Z,98838.84
2018-12-18T18:43:20.727Z,98837.23
2018-12-18T18:45:31.691Z,98834.66
2018-12-18T18:47:42.558Z,98839.40
2018-12-18T18:49:53.469Z,98853.25
2018-12-18T18:52:04.324Z,98853.93
2018-12-18T18:54:15.346Z,98850.81
2018-12-18T18:56:26.546Z,98849.59
2018-12-18T18:58:37.457Z,98840.20
2018-12-18T19:00:48.356Z,98842.25
2018-12-18T19:02:59.244Z,98836.56
2018-12-18T19:05:10.209Z,98836.23
2018-12-18T19:07:21.074Z,98829.41
2018-12-18T19:09:31.953Z,98825.51
2018-12-18T19:11:42.832Z,98817.93
2018-12-18T19:13:53.731Z,98811.95
2018-12-18T19:16:04.565Z,98805.16
2018-12-18T19:18:15.409Z,98796.21
2018-12-18T19:20:26.463Z,98792.95
2018-12-18T19:22:37.325Z,98773.83
2018-12-18T19:24:48.512Z,98768.98
2018-12-18T19:26:59.375Z,98761.50
2018-12-18T19:29:10.254Z,98753.64
2018-12-18T19:31:21.129Z,98746.89
2018-12-18T19:33:36.808Z,98743.66
2018-12-18T19:35:44.909Z,98735.26
2018-12-18T19:37:55.781Z,98730.17
2018-12-18T19:40:06.983Z,98733.38
2018-12-18T19:42:18.094Z,98723.05
2018-12-18T19:44:29.008Z,98720.14
2018-12-18T19:46:40.890Z,98719.87
2018-12-18T19:48:51.794Z,98725.11
2018-12-18T19:51:02.837Z,98716.30
2018-12-18T19:53:13.786Z,98721.82
2018-12-18T19:55:24.661Z,98730.80
2018-12-18T19:57:35.575Z,98730.80
2018-12-18T19:59:46.536Z,98733.31
2018-12-18T20:01:58.292Z,98742.23
2018-12-18T20:04:09.317Z,98741.73
2018-12-18T20:06:20.201Z,98753.27
2018-12-18T20:08:31.129Z,98748.05
2018-12-18T20:10:42.097Z,98746.75
2018-12-18T20:12:53.090Z,98751.05
2018-12-18T20:15:04.565Z,98744.58
2018-12-18T20:17:15.621Z,98748.48
2018-12-18T20:19:26.615Z,98748.83
2018-12-18T20:21:37.587Z,98749.31
2018-12-18T20:23:48.601Z,98745.91
2018-12-18T20:25:59.768Z,98749.66
2018-12-18T20:28:10.648Z,98744.86
2018-12-18T20:30:21.527Z,98735.92
2018-12-18T20:32:32.390Z,98728.57
2018-12-18T20:34:43.306Z,98722.20
2018-12-18T20:36:54.181Z,98722.25
2018-12-18T20:39:06.421Z,98726.11
2018-12-18T20:41:17.354Z,98724.27
2018-12-18T20:43:28.310Z,98712.38
2018-12-18T20:45:39.221Z,98720.48
2018-12-18T20:47:50.103Z,98719.42
2018-12-18T20:50:01.059Z,98726.73
2018-12-18T20:52:11.911Z,98722.48
2018-12-18T20:54:22.813Z,98718.14
2018-12-18T20:56:33.695Z,98708.48
2018-12-18T20:58:44.697Z,98706.36
2018-12-18T21:00:55.598Z,98702.18
2018-12-18T21:03:07.314Z,98693.83
2018-12-18T21:05:18.342Z,98689.91
2018-12-18T21:07:29.219Z,98692.48
2018-12-18T21:09:40.088Z,98690.99
2018-12-18T21:11:51.083Z,98685.80
2018-12-18T21:14:02.142Z,98681.66
2018-12-18T21:16:13.005Z,98676.95
2018-12-18T21:18:23.979Z,98682.95
2018-12-18T21:20:35.003Z,98682.08
2018-12-18T21:22:45.850Z,98687.20
2018-12-18T21:24:56.771Z,98693.20
2018-12-18T21:27:07.631Z,98691.38
2018-12-18T21:29:18.543Z,98676.38
2018-12-18T21:31:29.417Z,98675.81
2018-12-18T21:33:40.384Z,98676.58
2018-12-18T21:35:51.244Z,98676.25
2018-12-18T21:38:02.122Z,98679.26
2018-12-18T21:40:13.016Z,98682.60
2018-12-18T21:42:23.907Z,98684.77
2018-12-18T21:44:34.899Z,98680.14
2018-12-18T21:46:45.741Z,98672.20
2018-12-18T21:48:56.594Z,98676.53
2018-12-18T21:51:07.457Z,98683.08
2018-12-18T21:53:18.307Z,98680.13
2018-12-18T21:55:29.145Z,98677.72
2018-12-18T21:57:40.340Z,98682.02
2018-12-18T21:59:51.193Z,98681.08
2018-12-18T22:02:02.060Z,98672.61
2018-12-18T22:04:12.993Z,98669.54
2018-12-18T22:06:23.859Z,98672.59
2018-12-18T22:08:36.922Z,98665.36
2018-12-18T22:10:47.587Z,98668.80
2018-12-18T22:12:58.532Z,98656.88
2018-12-18T22:15:09.398Z,98654.32
2018-12-18T22:17:20.229Z,98657.03
2018-12-18T22:19:31.080Z,98657.59
2018-12-18T22:21:42.629Z,98653.32
2018-12-18T22:23:53.463Z,98651.70
2018-12-18T22:26:04.371Z,98637.20
2018-12-18T22:28:15.353Z,98629.56
2018-12-18T22:30:26.273Z,98624.89
2018-12-18T22:32:37.260Z,98625.33
2018-12-18T22:34:48.170Z,98613.35
2018-12-18T22:36:59.016Z,98604.77
2018-12-18T22:39:09.880Z,98603.05
2018-12-18T22:41:20.705Z,98590.73
2018-12-18T22:43:31.554Z,98586.48
2018-12-18T22:45:43.211Z,98591.67
2018-12-18T22:47:54.165Z,98592.06
2018-12-18T22:50:05.841Z,98599.53
2018-12-18T22:52:16.693Z,98604.60
2018-12-18T22:54:27.562Z,98592.02
2018-12-18T22:56:38.505Z,98600.02
2018-12-18T22:58:49.372Z,98590.97
2018-12-18T23:01:01.209Z,98592.25
2018-12-18T23:03:12.144Z,98594.86
2018-12-18T23:05:23.076Z,98600.44
2018-12-18T23:07:33.917Z,98600.81
2018-12-18T23:09:44.764Z,98601.64
2018-12-18T23:11:55.616Z,98598.20
2018-12-18T23:14:07.377Z,98601.86
2018-12-18T23:16:18.237Z,98605.20
2018-12-18T23:18:29.089Z,98600.04
2018-12-18T23:20:39.946Z,98597.53
2018-12-18T23:22:50.779Z,98589.77
2018-12-18T23:25:01.642Z,98584.66
2018-12-18T23:27:12.603Z,98590.34
2018-12-18T23:29:23.469Z,98593.29
2018-12-18T23:31:34.296Z,98587.21
2018-12-18T23:33:45.153Z,98590.19
2018-12-18T23:35:55.988Z,98583.42
2018-12-18T23:38:06.920Z,98578.52
2018-12-18T23:40:17.769Z,98575.59
2018-12-18T23:42:28.595Z,98575.13
2018-12-18T23:44:39.456Z,98569.55
2018-12-18T23:46:50.337Z,98565.15
2018-12-18T23:49:01.196Z,98561.81
2018-12-18T23:51:12.164Z,98564.38
2018-12-18T23:53:23.021Z,98554.20
2018-12-18T23:55:33.867Z,98558.04
2018-12-18T23:57:44.724Z,98552.23
2018-12-18T23:59:55.569Z,98554.41
